Latest Weather Observations for Lockhart River

IDQ60801

Issued at 11:31 am EST Friday 4 September 2015 (issued every 30 minutes, with the page automatically refreshed every 10 minutes)

About weather observations | Map of weather stations | Latest weather observations for QLD | Other Formats
Station Details ID: 028008 Name: LOCKHART RIVER AIRPORT Lat: -12.79 Lon: 143.30 Height: 18.5 m
Data from the previous 72 hours. | See also: Recent months at Lockhart River
Date/Time
EST
Temp
°C
App
Temp
°C
Dew
Point
Rel
Hum
%
Delta-T
°C
Wind Press
QNH
hPa
Press
MSL
hPa
Rain
since 9 am
mm
Dir
 
Spd
km/h
Gust
km/h
Spd
kts
Gust
kts
04/11:30am 27.4 28.1 19.7 63 5.0 E 15 26 8 14 1017.6 - 0.0
04/11:00am 27.4 28.4 20.2 65 4.7 E 15 20 8 11 1017.9 - 0.0
04/10:30am 26.5 27.9 20.3 68 4.1 ESE 13 20 7 11 1018.2 - 0.0
04/10:00am 26.1 27.7 20.0 69 4.0 SE 11 15 6 8 1018.3 - 0.0
04/09:56am 26.5 28.7 20.3 68 4.1 ESE 9 15 5 8 1018.4 - 0.0
04/09:43am 25.0 26.8 19.6 72 3.5 SE 9 15 5 8 1018.3 - 0.0
04/09:30am 24.5 26.5 20.0 76 2.9 SE 9 13 5 7 1018.4 - 0.0
04/09:00am 23.6 25.2 19.9 80 2.4 SSE 11 15 6 8 1018.3 1018.3 0.0
04/08:30am 21.0 24.0 19.3 90 1.1 SSE 2 9 1 5 1018.2 - 0.0
04/08:00am 19.6 22.8 18.9 96 0.4 CALM 0 0 0 0 1017.9 - 0.0
04/07:30am 18.3 21.1 18.0 98 0.2 CALM 0 0 0 0 1017.4 - 0.0
04/07:00am 16.5 18.6 16.2 98 0.2 CALM 0 0 0 0 1017.0 - 0.0
04/06:30am 16.0 17.9 15.7 98 0.2 CALM 0 0 0 0 1016.7 - 0.0
04/06:00am 16.4 18.4 15.9 97 0.3 CALM 0 0 0 0 1016.3 1016.3 0.0
04/05:30am 16.4 18.4 15.9 97 0.3 CALM 0 0 0 0 1016.1 - 0.0
04/05:00am 16.9 19.0 16.3 96 0.4 CALM 0 0 0 0 1016.0 - 0.0
04/04:30am 17.2 19.5 16.7 97 0.3 CALM 0 0 0 0 1015.9 - 0.0
04/04:00am 17.3 19.6 16.8 97 0.3 CALM 0 0 0 0 1015.8 - 0.0
04/03:30am 17.6 20.1 17.3 98 0.2 CALM 0 0 0 0 1015.7 - 0.0
04/03:00am 17.7 20.3 17.4 98 0.2 CALM 0 0 0 0 1015.8 - 0.0
04/02:32am 17.2 19.6 16.9 98 0.2 CALM 0 0 0 0 1016.0 - 0.0
04/02:30am 17.3 19.7 17.0 98 0.2 CALM 0 0 0 0 1016.0 - 0.0
04/02:00am 17.2 19.6 16.9 98 0.2 CALM 0 0 0 0 1016.1 - 0.0
04/01:46am 16.9 19.1 16.6 98 0.2 CALM 0 0 0 0 1016.1 - 0.0
04/01:30am 16.8 18.9 16.3 97 0.3 CALM 0 0 0 0 1016.0 - 0.0
04/01:00am 16.6 18.6 16.1 97 0.3 CALM 0 0 0 0 1016.4 - 0.0
04/12:30am 16.9 19.1 16.4 97 0.3 CALM 0 0 0 0 1016.7 - 0.0
04/12:00am 17.3 19.6 16.8 97 0.3 CALM 0 0 0 0 1017.1 - 0.0
 
Date/Time
EST
Temp
°C
App
Temp
°C
Dew
Point
Rel
Hum
%
Delta-T
°C
Wind Press
QNH
hPa
Press
MSL
hPa
Rain
since 9 am
mm
Dir
 
Spd
km/h
Gust
km/h
Spd
kts
Gust
kts
03/11:30pm 17.4 19.7 16.8 96 0.4 CALM 0 0 0 0 1017.4 - 0.0
03/11:00pm 17.7 20.1 17.1 96 0.4 CALM 0 0 0 0 1017.4 - 0.0
03/10:30pm 18.3 21.0 17.7 96 0.4 CALM 0 0 0 0 1017.4 - 0.0
03/10:00pm 18.7 21.5 17.9 95 0.5 CALM 0 0 0 0 1017.5 - 0.0
03/09:30pm 18.8 21.6 18.0 95 0.5 CALM 0 0 0 0 1017.7 - 0.0
03/09:00pm 19.3 22.2 18.1 93 0.7 CALM 0 0 0 0 1017.6 - 0.0
03/08:30pm 19.8 22.8 18.5 92 0.8 CALM 0 0 0 0 1017.4 - 0.0
03/08:00pm 20.6 23.7 18.7 89 1.2 CALM 0 0 0 0 1017.1 - 0.0
03/07:30pm 21.5 23.6 18.9 85 1.6 E 6 9 3 5 1016.8 - 0.0
03/07:00pm 22.4 24.9 19.0 81 2.2 ENE 4 7 2 4 1016.4 - 0.0
03/06:30pm 23.9 26.1 19.2 75 3.0 E 6 7 3 4 1016.0 - 0.0
03/06:00pm 25.0 26.1 18.9 69 3.9 ENE 11 15 6 8 1015.8 - 0.0
03/05:30pm 25.7 26.8 18.9 66 4.3 E 11 17 6 9 1015.6 - 0.0
03/05:00pm 26.3 27.4 18.9 63 4.7 E 11 17 6 9 1015.3 - 0.0
03/04:30pm 26.5 27.3 19.1 64 4.8 E 13 19 7 10 1015.1 - 0.0
03/04:00pm 27.0 27.4 19.1 62 5.1 ENE 15 22 8 12 1015.0 - 0.0
03/03:30pm 27.3 27.0 19.1 61 5.3 E 19 24 10 13 1015.2 - 0.0
03/03:00pm 27.4 27.5 19.2 61 5.3 E 17 24 9 13 1015.3 1015.3 0.0
03/02:30pm 27.5 27.8 19.6 62 5.1 E 17 24 9 13 1015.5 - 0.0
03/02:00pm 27.1 26.7 18.9 61 5.3 E 19 30 10 16 1015.7 - 0.0
03/01:30pm 27.7 28.0 19.5 61 5.3 E 17 24 9 13 1015.7 - 0.0
03/01:00pm 27.1 26.7 18.9 61 5.3 E 19 28 10 15 1016.1 - 0.0
03/12:30pm 27.7 27.6 18.7 58 5.8 E 17 30 9 16 1016.6 - 0.0
03/12:00pm 28.3 28.5 20.1 61 5.4 SE 19 30 10 16 1017.2 1017.2 0.0
03/11:30am 27.3 27.5 19.4 62 5.1 E 17 30 9 16 1017.7 - 0.0
03/11:00am 27.2 27.4 19.3 62 5.1 E 17 26 9 14 1018.2 - 0.0
03/10:30am 27.1 27.2 19.2 62 5.1 E 17 26 9 14 1018.5 - 0.0
03/10:00am 26.7 26.9 19.3 64 4.8 E 17 26 9 14 1018.5 - 0.0
03/09:30am 25.7 25.3 18.9 66 4.3 ESE 19 24 10 13 1018.8 - 0.0
03/09:00am 25.2 24.8 18.9 68 4.0 ESE 19 26 10 14 1018.6 1018.6 0.0
03/08:30am 22.6 25.0 20.1 86 1.6 S 7 11 4 6 1018.3 - 0.0
03/08:00am 20.6 24.5 20.3 98 0.2 CALM 0 0 0 0 1018.2 - 0.0
03/07:30am 18.5 21.4 18.3 99 0.1 CALM 0 0 0 0 1017.8 - 0.0
03/07:00am 17.1 19.4 16.8 98 0.2 CALM 0 0 0 0 1017.4 - 0.0
03/06:30am 16.7 18.9 16.4 98 0.2 CALM 0 0 0 0 1016.9 - 0.0
03/06:00am 16.8 19.0 16.5 98 0.2 CALM 0 0 0 0 1016.5 1016.4 0.0
03/05:30am 17.2 19.5 16.7 97 0.3 CALM 0 0 0 0 1016.2 - 0.0
03/05:00am 17.4 19.8 16.9 97 0.3 CALM 0 0 0 0 1015.9 - 0.0
03/04:30am 17.6 20.0 17.1 97 0.3 CALM 0 0 0 0 1015.6 - 0.0
03/04:00am 17.7 20.2 17.2 97 0.3 CALM 0 0 0 0 1015.6 - 0.0
03/03:30am 18.0 20.6 17.5 97 0.3 CALM 0 0 0 0 1015.5 - 0.0
03/03:00am 18.2 20.9 17.7 97 0.3 CALM 0 0 0 0 1015.5 1015.4 0.0
03/02:30am 18.6 21.5 18.1 97 0.3 CALM 0 0 0 0 1015.7 - 0.0
03/02:00am 18.5 21.2 17.8 96 0.4 CALM 0 0 0 0 1016.0 - 0.0
03/01:30am 19.1 22.1 18.4 96 0.4 CALM 0 0 0 0 1016.1 - 0.0
03/01:00am 19.2 22.2 18.5 96 0.4 CALM 0 0 0 0 1016.2 - 0.0
03/12:37am 19.2 22.2 18.5 96 0.4 CALM 0 0 0 0 1016.3 - 0.0
03/12:30am 19.2 22.2 18.5 96 0.4 CALM 0 0 0 0 1016.3 - 0.0
03/12:00am 19.7 23.0 19.2 97 0.3 CALM 0 0 0 0 1016.4 1016.3 0.0
 
Date/Time
EST
Temp
°C
App
Temp
°C
Dew
Point
Rel
Hum
%
Delta-T
°C
Wind Press
QNH
hPa
Press
MSL
hPa
Rain
since 9 am
mm
Dir
 
Spd
km/h
Gust
km/h
Spd
kts
Gust
kts
02/11:43pm 19.7 22.3 19.2 97 0.3 NW 4 7 2 4 1016.5 - 0.0
02/11:30pm 19.6 21.7 18.9 96 0.4 NW 6 7 3 4 1016.5 - 0.0
02/11:00pm 20.0 23.4 19.3 96 0.4 CALM 0 6 0 3 1016.3 - 0.0
02/10:30pm 20.1 22.7 19.3 95 0.5 N 4 7 2 4 1016.3 - 0.0
02/10:00pm 20.5 23.9 19.3 93 0.8 CALM 0 0 0 0 1016.3 - 0.0
02/09:30pm 22.1 24.9 19.6 86 1.6 ENE 4 9 2 5 1016.2 - 0.0
02/09:00pm 23.5 26.1 20.4 83 2.0 E 7 13 4 7 1016.0 1016.0 0.0
02/08:30pm 23.8 26.5 20.7 83 2.0 E 7 13 4 7 1016.0 - 0.0
02/08:00pm 23.8 26.3 20.3 81 2.3 E 7 9 4 5 1015.8 - 0.0
02/07:30pm 24.2 26.4 20.5 80 2.4 E 9 13 5 7 1015.7 - 0.0
02/07:00pm 24.5 26.0 20.6 79 2.5 E 13 19 7 10 1015.6 - 0.0
02/06:30pm 24.7 26.4 20.2 76 2.9 E 11 15 6 8 1015.5 - 0.0
02/06:00pm 25.3 26.2 20.1 73 3.4 E 15 20 8 11 1015.5 1015.4 0.0
02/05:30pm 26.0 26.5 20.1 70 3.8 E 17 22 9 12 1015.3 - 0.0
02/05:00pm 26.5 27.1 20.3 68 4.1 E 17 24 9 13 1015.2 - 0.0
02/04:30pm 26.9 27.7 19.8 65 4.6 E 15 24 8 13 1015.1 - 0.0
02/04:00pm 27.2 27.6 19.8 64 4.8 E 17 24 9 13 1015.0 - 0.0
02/03:30pm 27.8 28.7 20.9 66 4.6 E 17 24 9 13 1015.0 - 0.0
02/03:00pm 27.5 28.4 20.8 67 4.4 E 17 24 9 13 1015.1 1015.0 0.0
02/02:30pm 28.0 28.1 20.0 61 5.2 E 19 28 10 15 1015.4 - 0.0
02/02:00pm 27.6 27.6 20.2 64 4.8 ENE 20 28 11 15 1015.8 - 0.0
02/01:30pm 27.6 27.2 19.4 61 5.3 ESE 20 28 11 15 1016.2 - 0.0
02/01:00pm 27.4 26.8 19.7 63 5.0 ESE 22 33 12 18 1016.5 - 0.0
02/12:30pm 28.0 28.2 20.6 64 4.9 E 20 32 11 17 1016.9 - 0.0
02/12:00pm 28.1 28.5 20.6 63 4.9 E 19 28 10 15 1017.4 1017.3 0.0
02/11:30am 27.5 27.5 20.1 64 4.8 E 20 35 11 19 1017.8 - 0.0
02/11:00am 27.7 27.4 20.3 64 4.9 ESE 22 30 12 16 1018.2 - 0.0
02/10:30am 27.5 27.9 20.6 66 4.5 E 19 30 10 16 1018.3 - 0.0
02/10:00am 26.9 27.1 20.5 68 4.2 E 20 28 11 15 1018.5 - 0.0
02/09:30am 26.2 26.4 20.5 71 3.7 E 20 28 11 15 1018.3 - 0.0
02/09:00am 24.6 27.4 21.5 83 2.0 SE 9 15 5 8 1018.0 1017.9 0.0
02/08:30am 22.7 27.2 21.5 93 0.8 CALM 0 0 0 0 1017.8 - 0.0
02/08:00am 21.1 25.3 20.9 99 0.1 CALM 0 0 0 0 1017.4 - 0.0
02/07:30am 19.0 22.1 18.7 98 0.2 CALM 0 0 0 0 1017.1 - 0.0
02/07:00am 18.3 21.1 18.0 98 0.2 CALM 0 0 0 0 1016.6 - 0.0
02/06:30am 18.1 20.7 17.6 97 0.3 CALM 0 0 0 0 1016.1 - 0.0
02/06:00am 18.4 21.2 17.9 97 0.3 CALM 0 0 0 0 1015.6 1015.6 0.0
02/05:30am 18.4 21.2 17.9 97 0.3 CALM 0 0 0 0 1015.3 - 0.0
02/05:00am 18.5 21.3 18.0 97 0.3 CALM 0 0 0 0 1015.1 - 0.0
02/04:30am 18.7 21.6 18.2 97 0.3 CALM 0 0 0 0 1015.0 - 0.0
02/04:00am 19.0 22.0 18.5 97 0.3 CALM 0 0 0 0 1015.0 - 0.0
02/03:30am 18.9 21.9 18.4 97 0.3 CALM 0 0 0 0 1014.9 - 0.0
02/03:00am 19.3 22.5 18.8 97 0.3 CALM 0 0 0 0 1014.9 1014.8 0.0
02/02:51am 19.3 22.5 18.8 97 0.3 CALM 0 0 0 0 1014.8 - 0.0
02/02:30am 19.3 22.5 18.8 97 0.3 CALM 0 0 0 0 1014.9 - 0.0
02/02:21am 19.3 22.5 18.8 97 0.3 CALM 0 0 0 0 1014.9 - 0.0
02/02:00am 19.2 22.3 18.7 97 0.3 CALM 0 0 0 0 1014.9 - 0.0
02/01:52am 19.3 22.5 18.8 97 0.3 CALM 0 0 0 0 1015.0 - 0.0
02/01:30am 19.7 23.0 19.2 97 0.3 CALM 0 0 0 0 1015.0 - 0.0
02/01:00am 19.6 22.9 19.1 97 0.3 CALM 0 0 0 0 1015.1 - 0.0
02/12:55am 19.7 23.0 19.2 97 0.3 CALM 0 0 0 0 1015.1 - 0.0
02/12:30am 19.8 23.2 19.3 97 0.3 CALM 0 0 0 0 1015.3 - 0.0
02/12:26am 19.8 23.2 19.3 97 0.3 CALM 0 0 0 0 1015.3 - 0.0
02/12:00am 19.7 23.0 19.0 96 0.4 CALM 0 0 0 0 1015.4 1015.3 0.0
 
Date/Time
EST
Temp
°C
App
Temp
°C
Dew
Point
Rel
Hum
%
Delta-T
°C
Wind Press
QNH
hPa
Press
MSL
hPa
Rain
since 9 am
mm
Dir
 
Spd
km/h
Gust
km/h
Spd
kts
Gust
kts
01/11:55pm 19.7 23.0 19.0 96 0.4 CALM 0 0 0 0 1015.4 - 0.0
01/11:47pm 19.8 23.1 19.1 96 0.4 CALM 0 0 0 0 1015.4 - 0.0
01/11:30pm 20.1 23.5 19.4 96 0.4 CALM 0 0 0 0 1015.4 - 0.0
01/11:09pm 19.9 23.2 19.2 96 0.4 CALM 0 0 0 0 1015.5 - 0.0
01/11:00pm 20.0 23.3 19.2 95 0.5 CALM 0 0 0 0 1015.5 - 0.0
01/10:46pm 20.4 24.0 19.7 96 0.4 CALM 0 0 0 0 1015.4 - 0.0
01/10:30pm 20.4 23.9 19.6 95 0.5 CALM 0 0 0 0 1015.4 - 0.0
01/10:26pm 20.4 23.9 19.6 95 0.5 CALM 0 0 0 0 1015.4 - 0.0
01/10:00pm 20.6 24.2 19.8 95 0.5 CALM 0 0 0 0 1015.3 - 0.0
01/09:30pm 20.7 24.3 19.7 94 0.6 CALM 0 0 0 0 1015.3 - 0.0
01/09:00pm 21.3 25.1 20.1 93 0.8 CALM 0 0 0 0 1014.9 1014.8 0.0
01/08:30pm 22.0 26.0 20.5 91 1.0 CALM 0 0 0 0 1014.5 - 0.0
01/08:00pm 22.6 26.6 20.5 88 1.4 CALM 0 0 0 0 1014.2 - 0.0
01/07:30pm 23.1 27.1 20.6 86 1.6 CALM 0 0 0 0 1013.8 - 0.0
01/07:00pm 23.9 26.6 20.6 82 2.2 E 7 9 4 5 1013.5 - 0.0
01/06:30pm 24.3 26.6 20.6 80 2.4 E 9 11 5 6 1013.3 - 0.0
01/06:00pm 25.0 26.9 20.5 76 2.9 E 11 20 6 11 1013.2 1013.1 0.0
01/05:30pm 25.6 26.7 20.4 73 3.4 E 15 24 8 13 1013.0 - 0.0
01/05:00pm 26.1 26.6 20.0 69 4.0 E 17 22 9 12 1013.1 - 0.0
01/04:30pm 26.7 27.7 20.3 68 4.2 ENE 15 20 8 11 1013.0 - 0.0
01/04:00pm 27.1 27.1 19.7 64 4.8 E 19 28 10 15 1013.0 - 0.0
01/03:30pm 27.5 27.5 19.8 63 5.0 E 19 28 10 15 1012.9 - 0.0
01/03:00pm 27.8 28.6 19.8 61 5.2 ENE 15 24 8 13 1013.3 1013.2 0.0
01/02:30pm 27.8 27.7 19.6 61 5.3 ENE 19 24 10 13 1013.5 - 0.0
01/02:00pm 27.7 27.7 19.0 59 5.6 E 17 26 9 14 1013.9 - 0.0
01/01:30pm 27.6 28.6 20.2 64 4.8 E 15 24 8 13 1014.4 - 0.0
01/01:00pm 27.4 27.1 19.5 62 5.1 E 20 32 11 17 1014.7 - 0.0
01/12:30pm 27.9 28.1 20.5 64 4.9 ESE 20 28 11 15 1015.1 - 0.0
01/12:00pm 26.8 26.8 19.7 65 4.6 E 19 24 10 13 1015.6 1015.5 0.0

Other Formats:

Comma delimited format used in spreadsheet applications
http://www.bom.gov.au/fwo/IDQ60801/IDQ60801.94186.axf

JavaScript Object Notation format (JSON) in row-major order
http://www.bom.gov.au/fwo/IDQ60801/IDQ60801.94186.json